createdAt,value
2022-11-14T00:02:32.310Z,1004.04
2022-11-14T00:07:32.162Z,1003.94
2022-11-14T00:12:32.103Z,1003.90
2022-11-14T00:17:32.031Z,1003.99
2022-11-14T00:22:31.973Z,1003.91
2022-11-14T00:27:31.900Z,1003.77
2022-11-14T00:32:31.843Z,1003.70
2022-11-14T00:37:31.781Z,1003.70
2022-11-14T00:42:31.711Z,1003.73
2022-11-14T00:47:31.638Z,1003.66
2022-11-14T00:52:31.582Z,1003.63
2022-11-14T00:57:31.506Z,1003.56
2022-11-14T01:02:31.453Z,1003.55
2022-11-14T01:07:31.386Z,1003.56
2022-11-14T01:12:31.324Z,1003.48
2022-11-14T01:17:31.254Z,1003.47
2022-11-14T01:22:31.197Z,1003.36
2022-11-14T01:27:31.133Z,1003.24
2022-11-14T01:32:31.075Z,1003.27
2022-11-14T01:37:31.002Z,1003.23
2022-11-14T01:42:30.948Z,1003.22
2022-11-14T01:47:30.880Z,1003.11
2022-11-14T01:52:30.822Z,1003.02
2022-11-14T01:57:30.751Z,1003.00
2022-11-14T02:02:30.696Z,1002.96
2022-11-14T02:07:30.744Z,1002.76
2022-11-14T02:12:30.578Z,1002.72
2022-11-14T02:17:31.233Z,1002.61
2022-11-14T02:22:30.448Z,1002.55
2022-11-14T02:27:30.375Z,1002.47
2022-11-14T02:32:45.038Z,1002.52
2022-11-14T02:37:31.279Z,1002.50
2022-11-14T02:42:30.195Z,1002.37
2022-11-14T02:47:30.123Z,1002.42
2022-11-14T02:52:30.070Z,1002.40
2022-11-14T02:57:29.996Z,1002.30
2022-11-14T03:02:29.943Z,1002.22
2022-11-14T03:07:29.961Z,1002.18
2022-11-14T03:12:29.820Z,1002.23
2022-11-14T03:17:29.748Z,1002.36
2022-11-14T03:22:29.693Z,1002.26
2022-11-14T03:27:29.624Z,1002.19
2022-11-14T03:32:29.574Z,1002.23
2022-11-14T03:37:29.500Z,1002.12
2022-11-14T03:42:29.444Z,1002.01
2022-11-14T03:47:29.372Z,1002.16
2022-11-14T03:52:29.323Z,1002.05
2022-11-14T03:57:29.247Z,1002.16
2022-11-14T04:02:29.196Z,1002.16
2022-11-14T04:07:29.196Z,1001.98
2022-11-14T04:12:29.070Z,1002.09
2022-11-14T04:17:29.002Z,1002.05
2022-11-14T04:22:28.942Z,1002.03
2022-11-14T04:27:28.871Z,1001.85
2022-11-14T04:32:28.816Z,1001.88
2022-11-14T04:37:28.744Z,1001.73
2022-11-14T04:42:28.690Z,1001.64
2022-11-14T04:47:28.629Z,1001.52
2022-11-14T04:52:28.549Z,1001.44
2022-11-14T04:57:28.478Z,1001.34
2022-11-14T05:02:28.423Z,1001.21
2022-11-14T05:07:28.462Z,1001.21
2022-11-14T05:12:28.292Z,1001.22
2022-11-14T05:17:28.221Z,1001.44
2022-11-14T05:22:28.164Z,1001.46
2022-11-14T05:27:28.093Z,1001.40
2022-11-14T05:32:28.038Z,1001.40
2022-11-14T05:37:27.980Z,1001.21
2022-11-14T05:42:27.910Z,1001.24
2022-11-14T05:47:27.866Z,1001.30
2022-11-14T05:52:27.781Z,1001.35
2022-11-14T05:57:27.709Z,1001.36
2022-11-14T06:02:27.709Z,1001.26
2022-11-14T06:07:27.635Z,1001.30
2022-11-14T06:12:27.526Z,1001.32
2022-11-14T06:17:27.452Z,1001.42
2022-11-14T06:22:27.403Z,1001.36
2022-11-14T06:27:27.325Z,1001.38
2022-11-14T06:32:27.270Z,1001.42
2022-11-14T06:37:31.366Z,1001.40
2022-11-14T06:42:27.144Z,1001.44
2022-11-14T06:47:27.071Z,1001.47
2022-11-14T06:52:27.014Z,1001.53
2022-11-14T06:57:26.944Z,1001.57
2022-11-14T07:02:26.891Z,1001.56
2022-11-14T07:07:28.714Z,1001.68
2022-11-14T07:12:26.757Z,1001.59
2022-11-14T07:17:30.958Z,1001.62
2022-11-14T07:22:26.631Z,1001.71
2022-11-14T07:27:26.558Z,1001.73
2022-11-14T07:32:26.501Z,1001.78
2022-11-14T07:37:26.431Z,1001.69
2022-11-14T07:42:26.375Z,1001.71
2022-11-14T07:47:26.302Z,1001.67
2022-11-14T07:52:26.250Z,1001.61
2022-11-14T07:57:26.179Z,1001.62
2022-11-14T08:02:26.122Z,1001.45
2022-11-14T08:07:26.067Z,1001.47
2022-11-14T08:12:26.002Z,1001.42
2022-11-14T08:17:25.925Z,1001.27
2022-11-14T08:22:25.871Z,1001.26
2022-11-14T08:27:25.795Z,1001.35
2022-11-14T08:32:25.740Z,1001.32
2022-11-14T08:37:25.664Z,1001.17
2022-11-14T08:42:25.607Z,1001.16
2022-11-14T08:47:25.539Z,1001.04
2022-11-14T08:52:25.475Z,1000.84
2022-11-14T08:57:25.407Z,1000.93
2022-11-14T09:02:25.344Z,1000.84
2022-11-14T09:07:25.336Z,1000.67
2022-11-14T09:12:25.210Z,1000.59
2022-11-14T09:17:25.140Z,1000.60
2022-11-14T09:22:25.078Z,1000.68
2022-11-14T09:27:25.006Z,1000.50
2022-11-14T09:32:24.949Z,1000.50
2022-11-14T09:37:24.880Z,1000.41
2022-11-14T09:42:24.819Z,1000.39
2022-11-14T09:47:24.752Z,1000.40
2022-11-14T09:52:24.688Z,1000.46
2022-11-14T09:57:24.618Z,1000.34
2022-11-14T10:02:24.631Z,1000.32
2022-11-14T10:07:24.552Z,1000.27
2022-11-14T10:12:24.433Z,1000.23
2022-11-14T10:17:24.358Z,1000.30
2022-11-14T10:22:24.302Z,1000.29
2022-11-14T10:27:24.229Z,1000.16
2022-11-14T10:32:24.174Z,1000.06
2022-11-14T10:37:24.101Z,1000.01
2022-11-14T10:42:24.047Z,999.96
2022-11-14T10:47:23.977Z,999.89
2022-11-14T10:52:23.921Z,999.81
2022-11-14T10:57:23.851Z,999.73
2022-11-14T11:02:23.793Z,999.74
2022-11-14T11:07:23.819Z,999.73
2022-11-14T11:12:23.753Z,999.60
2022-11-14T11:17:25.092Z,999.61
2022-11-14T11:22:23.530Z,999.72
2022-11-14T11:27:23.459Z,999.71
2022-11-14T11:32:23.392Z,999.76
2022-11-14T11:37:23.379Z,999.76
2022-11-14T11:42:23.259Z,999.71
2022-11-14T11:47:23.204Z,999.73
2022-11-14T11:52:23.128Z,999.59
2022-11-14T11:57:23.068Z,999.66
2022-11-14T12:02:23.154Z,999.63
2022-11-14T12:07:22.991Z,999.60
2022-11-14T12:12:22.866Z,999.60
2022-11-14T12:17:22.811Z,999.62
2022-11-14T12:22:22.736Z,999.55
2022-11-14T12:27:22.762Z,999.58
2022-11-14T12:32:22.604Z,999.62
2022-11-14T12:37:22.652Z,999.62
2022-11-14T12:42:22.480Z,999.51
2022-11-14T12:47:22.423Z,999.43
2022-11-14T12:52:22.345Z,999.46
2022-11-14T12:57:22.286Z,999.49
2022-11-14T13:02:22.767Z,999.41
2022-11-14T13:07:22.306Z,999.35
2022-11-14T13:12:22.081Z,999.33
2022-11-14T13:17:22.025Z,999.27
2022-11-14T13:22:21.951Z,999.16
2022-11-14T13:27:30.500Z,999.08
2022-11-14T13:32:22.847Z,999.09
2022-11-14T13:37:21.761Z,999.00
2022-11-14T13:42:21.689Z,999.03
2022-11-14T13:47:21.635Z,998.96
2022-11-14T13:52:21.558Z,998.89
2022-11-14T13:57:21.507Z,998.80
2022-11-14T14:02:21.430Z,998.84
2022-11-14T14:07:21.409Z,998.87
2022-11-14T14:12:21.298Z,998.65
2022-11-14T14:17:21.239Z,998.70
2022-11-14T14:22:21.168Z,998.59
2022-11-14T14:27:21.110Z,998.62
2022-11-14T14:32:21.037Z,998.67
2022-11-14T14:37:20.990Z,998.77
2022-11-14T14:42:20.905Z,998.58
2022-11-14T14:47:20.849Z,998.66
2022-11-14T14:52:20.779Z,998.66
2022-11-14T14:57:23.369Z,998.63
2022-11-14T15:02:20.649Z,998.62
2022-11-14T15:07:20.701Z,998.51
2022-11-14T15:12:20.516Z,998.59
2022-11-14T15:17:20.468Z,998.52
2022-11-14T15:22:20.385Z,998.54
2022-11-14T15:27:20.325Z,998.57
2022-11-14T15:32:20.253Z,998.61
2022-11-14T15:37:20.196Z,998.64
2022-11-14T15:42:20.120Z,998.57
2022-11-14T15:47:20.075Z,998.52
2022-11-14T15:52:19.987Z,998.64
2022-11-14T15:57:19.930Z,998.67
2022-11-14T16:02:19.864Z,998.61
2022-11-14T16:07:19.861Z,998.56
2022-11-14T16:12:19.726Z,998.60
2022-11-14T16:17:19.669Z,998.54
2022-11-14T16:22:19.591Z,998.51
2022-11-14T16:27:19.535Z,998.46
2022-11-14T16:32:19.462Z,998.40
2022-11-14T16:37:19.403Z,998.48
2022-11-14T16:42:19.330Z,998.50
2022-11-14T16:47:19.273Z,998.43
2022-11-14T16:52:19.204Z,998.47
2022-11-14T16:57:19.142Z,998.44
2022-11-14T17:02:19.160Z,998.55
2022-11-14T17:07:22.876Z,998.65
2022-11-14T17:12:18.942Z,998.66
2022-11-14T17:17:18.888Z,998.73
2022-11-14T17:22:18.810Z,998.68
2022-11-14T17:27:18.752Z,998.67
2022-11-14T17:32:18.679Z,998.61
2022-11-14T17:37:18.623Z,998.44
2022-11-14T17:42:18.550Z,998.35
2022-11-14T17:47:18.493Z,998.32
2022-11-14T17:52:18.418Z,998.28
2022-11-14T17:57:18.363Z,998.48
2022-11-14T18:02:18.291Z,998.42
2022-11-14T18:07:18.610Z,998.59
2022-11-14T18:12:18.158Z,998.46
2022-11-14T18:17:18.114Z,998.45
2022-11-14T18:22:18.025Z,998.47
2022-11-14T18:27:17.970Z,998.67
2022-11-14T18:32:17.897Z,998.60
2022-11-14T18:37:17.838Z,998.54
2022-11-14T18:42:17.763Z,998.43
2022-11-14T18:47:17.704Z,998.52
2022-11-14T18:52:17.911Z,998.51
2022-11-14T18:57:17.572Z,998.42
2022-11-14T19:02:17.568Z,998.39
2022-11-14T19:07:17.478Z,998.29
2022-11-14T19:12:17.387Z,998.30
2022-11-14T19:17:17.312Z,998.35
2022-11-14T19:22:17.269Z,998.40
2022-11-14T19:27:17.177Z,998.35
2022-11-14T19:32:17.107Z,998.44
2022-11-14T19:37:17.048Z,998.51
2022-11-14T19:42:16.976Z,998.45
2022-11-14T19:47:16.929Z,998.43
2022-11-14T19:52:18.050Z,998.22
2022-11-14T19:57:16.786Z,998.29
2022-11-14T20:02:16.715Z,998.24
2022-11-14T20:07:16.737Z,998.18
2022-11-14T20:12:16.606Z,998.11
2022-11-14T20:17:16.528Z,998.19
2022-11-14T20:22:16.453Z,998.17
2022-11-14T20:27:16.396Z,998.14
2022-11-14T20:32:16.327Z,998.05
2022-11-14T20:37:16.268Z,998.08
2022-11-14T20:42:16.193Z,998.01
2022-11-14T20:47:16.428Z,998.01
2022-11-14T20:52:16.063Z,998.04
2022-11-14T20:57:16.002Z,997.93
2022-11-14T21:02:16.028Z,997.91
2022-11-14T21:07:15.931Z,998.06
2022-11-14T21:12:15.798Z,997.99
2022-11-14T21:17:15.744Z,997.92
2022-11-14T21:22:15.688Z,997.91
2022-11-14T21:27:15.608Z,997.94
2022-11-14T21:32:15.541Z,997.81
2022-11-14T21:37:15.478Z,997.74
2022-11-14T21:42:18.433Z,997.70
2022-11-14T21:47:15.348Z,997.73
2022-11-14T21:52:15.273Z,997.78
2022-11-14T21:57:15.216Z,997.76
2022-11-14T22:02:15.197Z,997.80
2022-11-14T22:07:15.126Z,997.82
2022-11-14T22:12:15.010Z,997.84
2022-11-14T22:17:14.967Z,997.83
2022-11-14T22:22:14.881Z,997.81
2022-11-14T22:27:14.825Z,997.72
2022-11-14T22:32:14.750Z,997.66
2022-11-14T22:37:14.728Z,997.67
2022-11-14T22:42:14.620Z,997.65
2022-11-14T22:47:14.640Z,997.60
2022-11-14T22:52:14.547Z,997.81
2022-11-14T22:57:14.431Z,997.74
2022-11-14T23:02:14.357Z,997.69
2022-11-14T23:07:14.407Z,997.63
2022-11-14T23:12:14.225Z,997.62
2022-11-14T23:17:14.188Z,997.57
2022-11-14T23:22:14.093Z,997.53
2022-11-14T23:27:14.035Z,997.51
2022-11-14T23:32:13.964Z,997.45
2022-11-14T23:37:13.904Z,997.47
2022-11-14T23:42:13.827Z,997.37
2022-11-14T23:47:13.769Z,997.36
2022-11-14T23:52:13.697Z,997.23
2022-11-14T23:57:13.639Z,997.27
